createdAt,value
2022-11-16T00:02:18.620Z,12.75
2022-11-16T00:04:45.364Z,10.07
2022-11-16T00:07:12.343Z,6.85
2022-11-16T00:09:39.163Z,8.88
2022-11-16T00:12:07.659Z,7.78
2022-11-16T00:14:35.866Z,13.95
2022-11-16T00:17:03.710Z,5.45
2022-11-16T00:19:30.589Z,7.68
2022-11-16T00:21:57.850Z,6.07
2022-11-16T00:24:24.491Z,5.30
2022-11-16T00:26:54.007Z,6.43
2022-11-16T00:29:24.073Z,7.35
2022-11-16T00:31:51.011Z,7.88
2022-11-16T00:34:18.483Z,6.28
2022-11-16T00:36:45.677Z,6.85
2022-11-16T00:39:13.860Z,7.95
2022-11-16T00:41:40.863Z,8.68
2022-11-16T00:44:07.569Z,6.93
2022-11-16T00:46:34.158Z,7.50
2022-11-16T00:49:00.807Z,10.68
2022-11-16T00:51:27.416Z,6.10
2022-11-16T00:53:54.010Z,6.75
2022-11-16T00:56:20.764Z,6.65
2022-11-16T00:58:47.312Z,5.30
2022-11-16T01:01:14.228Z,4.97
2022-11-16T01:03:41.224Z,8.73
2022-11-16T01:06:10.382Z,14.07
2022-11-16T01:08:38.466Z,14.77
2022-11-16T01:11:25.354Z,13.27
2022-11-16T01:13:52.040Z,21.75
2022-11-16T01:16:21.076Z,14.50
2022-11-16T01:18:49.476Z,10.55
2022-11-16T01:21:16.573Z,15.35
2022-11-16T01:23:43.145Z,5.55
2022-11-16T01:26:09.806Z,4.18
2022-11-16T01:28:36.751Z,4.25
2022-11-16T01:31:03.952Z,8.38
2022-11-16T01:33:30.812Z,3.67
2022-11-16T01:35:57.392Z,3.45
2022-11-16T01:38:29.380Z,8.38
2022-11-16T01:40:56.735Z,4.93
2022-11-16T01:43:25.357Z,4.22
2022-11-16T01:45:52.378Z,5.65
2022-11-16T01:48:30.587Z,5.18
2022-11-16T01:50:58.093Z,4.40
2022-11-16T01:53:25.132Z,4.03
2022-11-16T01:55:52.518Z,7.20
2022-11-16T01:58:23.193Z,5.05
2022-11-16T02:00:50.374Z,11.95
2022-11-16T02:03:20.859Z,5.75
2022-11-16T02:06:06.206Z,4.45
2022-11-16T02:08:54.472Z,7.75
2022-11-16T02:11:36.500Z,5.68
2022-11-16T02:14:40.911Z,4.60
2022-11-16T02:17:13.133Z,7.28
2022-11-16T02:20:18.336Z,5.10
2022-11-16T02:23:12.755Z,3.90
2022-11-16T02:26:03.609Z,3.78
2022-11-16T02:28:48.385Z,3.92
2022-11-16T02:31:24.759Z,4.05
2022-11-16T02:33:53.491Z,3.72
2022-11-16T02:36:24.302Z,3.58
2022-11-16T02:39:12.438Z,5.05
2022-11-16T02:41:42.869Z,7.05
2022-11-16T02:44:18.467Z,6.18
2022-11-16T02:46:48.761Z,3.72
2022-11-16T02:49:18.952Z,3.50
2022-11-16T02:51:50.705Z,4.30
2022-11-16T02:54:19.777Z,6.10
2022-11-16T02:56:48.911Z,3.22
2022-11-16T02:59:17.770Z,5.45
2022-11-16T03:01:49.858Z,3.92
2022-11-16T03:04:43.702Z,3.45
2022-11-16T03:07:14.844Z,3.38
2022-11-16T03:09:43.078Z,2.50
2022-11-16T03:12:15.009Z,3.47
2022-11-16T03:14:47.742Z,3.95
2022-11-16T03:17:38.372Z,3.92
2022-11-16T03:20:15.958Z,1.88
2022-11-16T03:22:45.992Z,4.20
2022-11-16T03:25:16.388Z,2.35
2022-11-16T03:28:09.560Z,2.17
2022-11-16T03:30:41.670Z,5.28
2022-11-16T03:33:17.179Z,3.70
2022-11-16T03:35:46.620Z,1.98
2022-11-16T03:38:16.010Z,2.20
2022-11-16T03:40:44.837Z,2.42
2022-11-16T03:43:11.641Z,5.00
2022-11-16T03:45:38.798Z,3.78
2022-11-16T03:48:07.280Z,3.28
2022-11-16T03:50:33.801Z,2.50
2022-11-16T03:53:00.410Z,1.80
2022-11-16T03:55:26.990Z,2.75
2022-11-16T03:57:53.527Z,1.67
2022-11-16T04:00:20.141Z,3.35
2022-11-16T04:02:46.771Z,2.70
2022-11-16T04:05:31.869Z,3.25
2022-11-16T04:08:17.087Z,3.03
2022-11-16T04:11:02.795Z,5.35
2022-11-16T04:13:50.543Z,2.58
2022-11-16T04:16:35.676Z,5.13
2022-11-16T04:19:21.090Z,6.65
2022-11-16T04:22:11.128Z,8.65
2022-11-16T04:24:43.227Z,2.95
2022-11-16T04:27:31.977Z,2.78
2022-11-16T04:30:01.321Z,9.98
2022-11-16T04:32:46.478Z,12.05
2022-11-16T04:35:31.718Z,2.90
2022-11-16T04:37:59.640Z,8.88
2022-11-16T04:40:30.718Z,4.90
2022-11-16T04:45:44.322Z,6.25
2022-11-16T04:48:12.278Z,6.03
2022-11-16T04:50:39.734Z,7.32
2022-11-16T04:53:06.913Z,12.85
2022-11-16T04:55:34.318Z,23.13
2022-11-16T04:58:01.492Z,9.00
2022-11-16T05:00:28.984Z,7.30
2022-11-16T05:03:01.064Z,6.20
2022-11-16T05:05:28.338Z,4.28
2022-11-16T05:07:54.902Z,5.32
2022-11-16T05:10:21.700Z,8.95
2022-11-16T05:12:48.312Z,4.60
2022-11-16T05:15:14.967Z,12.50
2022-11-16T05:17:41.595Z,12.48
2022-11-16T05:20:28.647Z,12.20
2022-11-16T05:22:56.692Z,15.20
2022-11-16T05:25:23.378Z,6.75
2022-11-16T05:27:50.008Z,9.57
2022-11-16T05:30:17.038Z,7.65
2022-11-16T05:32:44.266Z,8.13
2022-11-16T05:35:10.887Z,5.70
2022-11-16T05:37:37.516Z,9.65
2022-11-16T05:40:04.667Z,10.43
2022-11-16T05:42:31.247Z,14.88
2022-11-16T05:44:57.999Z,3.22
2022-11-16T05:47:24.565Z,7.82
2022-11-16T05:49:51.204Z,11.57
2022-11-16T05:52:17.763Z,7.50
2022-11-16T05:54:44.377Z,12.73
2022-11-16T05:57:10.981Z,5.50
2022-11-16T05:59:38.892Z,7.78
2022-11-16T06:02:05.493Z,20.83
2022-11-16T06:04:32.901Z,18.65
2022-11-16T06:06:59.724Z,13.25
2022-11-16T06:09:26.306Z,7.88
2022-11-16T06:11:52.823Z,20.95
2022-11-16T06:14:19.407Z,40.20
2022-11-16T06:16:45.944Z,20.08
2022-11-16T06:19:12.488Z,20.45
2022-11-16T06:21:39.187Z,18.25
2022-11-16T06:24:09.150Z,18.88
2022-11-16T06:26:36.798Z,21.85
2022-11-16T06:29:04.132Z,20.73
2022-11-16T06:31:31.153Z,19.88
2022-11-16T06:33:57.722Z,19.92
2022-11-16T06:36:24.394Z,15.75
2022-11-16T06:38:50.976Z,12.43
2022-11-16T06:41:17.545Z,20.33
2022-11-16T06:43:44.320Z,16.70
2022-11-16T06:46:10.862Z,11.43
2022-11-16T06:48:37.602Z,18.00
2022-11-16T06:51:04.505Z,10.07
2022-11-16T06:53:31.034Z,10.75
2022-11-16T06:56:05.398Z,21.90
2022-11-16T06:58:32.808Z,18.95
2022-11-16T07:01:11.149Z,14.05
2022-11-16T07:03:38.080Z,18.88
2022-11-16T07:06:12.777Z,17.95
2022-11-16T07:08:39.740Z,20.73
2022-11-16T07:11:08.077Z,13.63
2022-11-16T07:13:36.944Z,18.50
2022-11-16T07:16:08.322Z,10.75
2022-11-16T07:18:37.021Z,9.80
2022-11-16T07:21:11.789Z,15.48
2022-11-16T07:23:38.894Z,12.75
2022-11-16T07:26:07.639Z,12.23
2022-11-16T07:28:34.641Z,5.95
2022-11-16T07:31:06.483Z,10.25
2022-11-16T07:33:33.083Z,10.63
2022-11-16T07:36:07.710Z,11.73
2022-11-16T07:38:34.850Z,8.43
2022-11-16T07:41:06.713Z,7.90
2022-11-16T07:43:37.108Z,8.23
2022-11-16T07:46:44.509Z,9.93
2022-11-16T07:48:52.151Z,13.85
2022-11-16T07:51:19.916Z,8.82
2022-11-16T07:53:46.662Z,15.10
2022-11-16T07:56:13.388Z,12.98
2022-11-16T07:58:40.384Z,14.13
2022-11-16T08:01:09.542Z,16.17
2022-11-16T08:03:36.368Z,17.70
2022-11-16T08:06:05.799Z,12.75
2022-11-16T08:08:33.598Z,18.35
2022-11-16T08:11:06.396Z,6.20
2022-11-16T08:13:35.157Z,21.08
2022-11-16T08:16:16.746Z,17.52
2022-11-16T08:18:44.039Z,10.20
2022-11-16T08:21:13.889Z,16.05
2022-11-16T08:23:41.123Z,8.70
2022-11-16T08:26:10.993Z,14.27
2022-11-16T08:28:37.858Z,9.20
2022-11-16T08:31:13.790Z,16.00
2022-11-16T08:33:40.786Z,22.58
2022-11-16T08:36:13.959Z,14.93
2022-11-16T08:38:41.177Z,11.80
2022-11-16T08:41:07.789Z,10.32
2022-11-16T08:43:35.904Z,13.65
2022-11-16T08:46:03.326Z,32.58
2022-11-16T08:48:30.502Z,14.25
2022-11-16T08:51:19.348Z,10.48
2022-11-16T08:53:48.348Z,10.00
2022-11-16T08:56:17.163Z,10.10
2022-11-16T08:58:44.357Z,22.25
2022-11-16T09:01:22.312Z,12.82
2022-11-16T09:03:49.274Z,10.15
2022-11-16T09:06:16.187Z,13.65
2022-11-16T09:08:45.143Z,8.48
2022-11-16T09:11:14.078Z,11.25
2022-11-16T09:13:40.601Z,18.42
2022-11-16T09:16:07.446Z,15.88
2022-11-16T09:18:34.697Z,9.68
2022-11-16T09:21:01.730Z,10.70
2022-11-16T09:23:28.273Z,14.70
2022-11-16T09:25:54.891Z,14.80
2022-11-16T09:28:22.645Z,10.65
2022-11-16T09:30:51.202Z,10.57
2022-11-16T09:33:18.239Z,13.23
2022-11-16T09:35:44.947Z,20.38
2022-11-16T09:38:14.855Z,13.52
2022-11-16T09:40:47.714Z,15.32
2022-11-16T09:43:17.131Z,10.25
2022-11-16T09:46:06.567Z,12.85
2022-11-16T09:48:37.845Z,14.43
2022-11-16T09:51:08.971Z,9.35
2022-11-16T09:56:17.794Z,11.48
2022-11-16T09:59:45.799Z,23.63
2022-11-16T10:02:18.435Z,9.13
2022-11-16T10:05:03.135Z,10.60
2022-11-16T10:07:36.884Z,12.48
2022-11-16T10:10:03.939Z,17.02
2022-11-16T10:12:43.686Z,10.10
2022-11-16T10:15:47.515Z,12.77
2022-11-16T10:18:53.539Z,11.70
2022-11-16T10:21:22.975Z,9.65
2022-11-16T10:24:17.541Z,13.43
2022-11-16T10:26:47.078Z,19.70
2022-11-16T10:29:16.495Z,12.50
2022-11-16T10:32:01.877Z,6.90
2022-11-16T10:34:36.748Z,13.90
2022-11-16T10:37:08.484Z,15.00
2022-11-16T10:39:36.681Z,9.85
2022-11-16T10:42:11.738Z,10.10
2022-11-16T10:44:55.464Z,22.20
2022-11-16T10:47:29.381Z,14.50
2022-11-16T10:50:02.379Z,10.57
2022-11-16T10:52:29.055Z,20.17
2022-11-16T10:54:55.624Z,9.00
2022-11-16T10:57:23.825Z,22.15
2022-11-16T10:59:55.480Z,13.18
2022-11-16T11:02:27.337Z,18.50
2022-11-16T11:05:15.359Z,9.90
2022-11-16T11:07:46.769Z,7.43
2022-11-16T11:10:35.052Z,11.45
2022-11-16T11:13:12.607Z,8.13
2022-11-16T11:15:41.648Z,16.40
2022-11-16T11:18:23.426Z,8.43
2022-11-16T11:21:00.450Z,9.65
2022-11-16T11:23:27.758Z,6.80
2022-11-16T11:25:59.539Z,9.52
2022-11-16T11:28:36.839Z,14.80
2022-11-16T11:31:07.529Z,20.88
2022-11-16T11:33:37.926Z,30.48
2022-11-16T11:36:13.146Z,22.85
2022-11-16T11:39:04.246Z,13.57
2022-11-16T11:42:01.760Z,23.85
2022-11-16T11:44:37.642Z,27.40
2022-11-16T11:50:53.734Z,113.90
2022-11-16T11:53:47.862Z,107.97
2022-11-16T11:56:15.324Z,43.45
2022-11-16T11:58:43.313Z,47.92
2022-11-16T12:01:59.094Z,36.85
2022-11-16T12:04:48.479Z,12.43
2022-11-16T12:07:39.549Z,14.52
2022-11-16T12:10:15.245Z,20.75
2022-11-16T12:13:11.118Z,12.70
2022-11-16T12:16:13.782Z,11.82
2022-11-16T12:18:58.473Z,14.60
2022-11-16T12:21:31.190Z,7.10
2022-11-16T12:24:21.351Z,16.10
2022-11-16T12:27:12.918Z,14.40
2022-11-16T12:29:42.413Z,8.70
2022-11-16T12:32:17.810Z,11.45
2022-11-16T12:35:15.762Z,11.80
2022-11-16T12:38:00.830Z,13.45
2022-11-16T12:40:44.999Z,18.27
2022-11-16T12:43:28.231Z,12.15
2022-11-16T12:46:11.408Z,14.45
2022-11-16T12:48:59.142Z,14.95
2022-11-16T12:51:34.463Z,27.00
2022-11-16T12:54:38.665Z,37.40
2022-11-16T12:57:15.522Z,20.13
2022-11-16T13:00:09.199Z,14.20
2022-11-16T13:03:00.649Z,19.00
2022-11-16T13:06:03.282Z,9.45
2022-11-16T13:09:01.779Z,18.73
2022-11-16T13:11:39.849Z,9.45
2022-11-16T13:14:13.257Z,9.80
2022-11-16T13:16:40.023Z,8.57
2022-11-16T13:19:11.818Z,8.57
2022-11-16T13:22:03.602Z,8.88
2022-11-16T13:24:42.134Z,14.23
2022-11-16T13:27:41.029Z,8.88
2022-11-16T13:30:18.622Z,10.57
2022-11-16T13:33:03.910Z,18.42
2022-11-16T13:35:30.653Z,31.27
2022-11-16T13:37:57.211Z,15.77
2022-11-16T13:40:29.478Z,15.32
2022-11-16T13:43:03.742Z,10.27
2022-11-16T13:45:36.253Z,14.30
2022-11-16T13:48:15.009Z,10.85
2022-11-16T13:50:48.910Z,12.70
2022-11-16T13:56:10.899Z,9.93
2022-11-16T13:58:43.921Z,16.88
2022-11-16T14:01:15.857Z,7.18
2022-11-16T14:03:51.664Z,11.45
2022-11-16T14:06:24.496Z,7.68
2022-11-16T14:08:58.463Z,7.15
2022-11-16T14:11:31.062Z,8.32
2022-11-16T14:14:01.170Z,12.15
2022-11-16T14:16:29.079Z,9.00
2022-11-16T14:19:00.865Z,11.52
2022-11-16T14:21:47.621Z,14.75
2022-11-16T14:24:37.928Z,14.32
2022-11-16T14:27:19.661Z,11.53
2022-11-16T14:30:10.801Z,10.90
2022-11-16T14:32:45.721Z,10.02
2022-11-16T14:35:30.199Z,10.50
2022-11-16T14:37:59.253Z,10.80
2022-11-16T14:40:26.189Z,11.35
2022-11-16T14:45:49.302Z,8.02
2022-11-16T14:48:19.377Z,7.15
2022-11-16T14:51:00.240Z,14.57
2022-11-16T14:53:28.555Z,7.82
2022-11-16T14:56:06.849Z,9.20
2022-11-16T14:58:33.551Z,4.90
2022-11-16T15:01:02.809Z,9.75
2022-11-16T15:03:39.923Z,12.95
2022-11-16T15:06:07.847Z,9.82
2022-11-16T15:08:45.467Z,12.68
2022-11-16T15:11:47.583Z,22.85
2022-11-16T15:14:21.088Z,29.35
2022-11-16T15:16:56.161Z,20.98
2022-11-16T15:19:23.816Z,12.75
2022-11-16T15:21:58.911Z,11.80
2022-11-16T15:24:32.016Z,14.95
2022-11-16T15:27:23.040Z,8.05
2022-11-16T15:29:49.653Z,7.13
2022-11-16T15:32:17.416Z,8.15
2022-11-16T15:34:51.033Z,12.45
2022-11-16T15:37:27.840Z,10.82
2022-11-16T15:39:56.387Z,10.77
2022-11-16T15:42:23.949Z,7.20
2022-11-16T15:44:51.932Z,8.02
2022-11-16T15:47:19.210Z,12.90
2022-11-16T15:49:49.772Z,13.48
2022-11-16T15:52:50.225Z,15.98
2022-11-16T15:55:21.080Z,7.13
2022-11-16T15:58:04.620Z,27.70
2022-11-16T16:00:34.796Z,9.52
2022-11-16T16:03:16.229Z,17.50
2022-11-16T16:05:43.535Z,15.93
2022-11-16T16:09:03.478Z,12.85
2022-11-16T16:11:30.047Z,12.38
2022-11-16T16:14:02.465Z,9.02
2022-11-16T16:16:30.360Z,6.65
2022-11-16T16:19:03.818Z,6.18
2022-11-16T16:21:46.942Z,9.43
2022-11-16T16:24:35.185Z,5.55
2022-11-16T16:27:01.843Z,8.80
2022-11-16T16:29:28.684Z,6.60
2022-11-16T16:31:56.039Z,4.47
2022-11-16T16:34:22.657Z,5.50
2022-11-16T16:36:49.210Z,11.30
2022-11-16T16:39:15.784Z,14.52
2022-11-16T16:41:42.577Z,10.70
2022-11-16T16:44:14.880Z,11.27
2022-11-16T16:46:41.485Z,12.45
2022-11-16T16:49:08.386Z,14.80
2022-11-16T16:51:34.902Z,14.70
2022-11-16T16:54:01.447Z,10.38
2022-11-16T16:56:28.059Z,18.27
2022-11-16T16:58:54.626Z,9.75
2022-11-16T17:01:21.252Z,6.70
2022-11-16T17:03:48.312Z,9.38
2022-11-16T17:06:14.869Z,8.73
2022-11-16T17:08:41.440Z,9.15
2022-11-16T17:11:09.070Z,6.20
2022-11-16T17:13:35.986Z,7.82
2022-11-16T17:16:06.166Z,7.53
2022-11-16T17:18:32.877Z,5.30
2022-11-16T17:21:07.407Z,10.60
2022-11-16T17:23:34.376Z,10.60
2022-11-16T17:26:09.097Z,9.43
2022-11-16T17:28:35.733Z,8.30
2022-11-16T17:31:04.494Z,8.30
2022-11-16T17:33:39.226Z,13.70
2022-11-16T17:36:07.094Z,11.73
2022-11-16T17:38:34.715Z,10.15
2022-11-16T17:41:18.758Z,14.70
2022-11-16T17:43:46.694Z,4.80
2022-11-16T17:46:14.554Z,7.45
2022-11-16T17:48:43.386Z,6.60
2022-11-16T17:51:11.735Z,10.98
2022-11-16T17:53:39.921Z,12.60
2022-11-16T17:56:07.410Z,9.63
2022-11-16T17:58:34.313Z,12.15
2022-11-16T18:01:01.030Z,6.28
2022-11-16T18:03:28.515Z,9.43
2022-11-16T18:06:09.338Z,8.65
2022-11-16T18:08:36.703Z,9.55
2022-11-16T18:11:24.241Z,9.32
2022-11-16T18:14:00.557Z,14.02
2022-11-16T18:16:32.805Z,11.13
2022-11-16T18:19:05.243Z,15.93
2022-11-16T18:21:33.767Z,12.52
2022-11-16T18:24:00.621Z,10.77
2022-11-16T18:26:27.251Z,11.20
2022-11-16T18:28:54.124Z,15.38
2022-11-16T18:31:23.410Z,9.48
2022-11-16T18:33:50.433Z,7.15
2022-11-16T18:36:18.533Z,10.23
2022-11-16T18:38:45.847Z,9.40
2022-11-16T18:41:12.343Z,9.93
2022-11-16T18:43:53.638Z,16.90
2022-11-16T18:48:47.643Z,17.17
2022-11-16T18:51:16.498Z,17.38
2022-11-16T18:53:43.145Z,16.33
2022-11-16T18:56:11.413Z,14.85
2022-11-16T18:58:54.414Z,12.20
2022-11-16T19:01:25.864Z,9.60
2022-11-16T19:03:53.608Z,19.27
2022-11-16T19:06:20.545Z,16.77
2022-11-16T19:08:55.132Z,17.83
2022-11-16T19:11:23.831Z,13.93
2022-11-16T19:14:03.903Z,23.27
2022-11-16T19:16:31.277Z,27.85
2022-11-16T19:18:57.864Z,18.00
2022-11-16T19:21:25.232Z,25.60
2022-11-16T19:23:53.758Z,22.52
2022-11-16T19:26:23.485Z,21.80
2022-11-16T19:28:51.184Z,27.88
2022-11-16T19:31:23.755Z,16.45
2022-11-16T19:33:58.997Z,31.00
2022-11-16T19:36:27.262Z,32.65
2022-11-16T19:38:53.901Z,21.25
2022-11-16T19:41:22.421Z,25.67
2022-11-16T19:43:52.459Z,29.48
2022-11-16T19:46:24.340Z,22.67
2022-11-16T19:48:51.773Z,17.98
2022-11-16T19:51:28.523Z,19.65
2022-11-16T19:53:55.940Z,23.60
2022-11-16T19:56:23.934Z,28.90
2022-11-16T19:58:51.292Z,19.25
2022-11-16T20:01:23.681Z,15.60
2022-11-16T20:03:50.526Z,17.58
2022-11-16T20:06:20.527Z,17.40
2022-11-16T20:08:49.470Z,28.17
2022-11-16T20:11:20.347Z,23.67
2022-11-16T20:13:48.018Z,19.27
2022-11-16T20:16:16.450Z,19.30
2022-11-16T20:18:44.238Z,16.63
2022-11-16T20:21:18.624Z,14.52
2022-11-16T20:23:45.628Z,20.25
2022-11-16T20:26:14.003Z,18.80
2022-11-16T20:28:42.514Z,25.70
2022-11-16T20:31:14.477Z,20.38
2022-11-16T20:33:41.704Z,16.30
2022-11-16T20:36:11.125Z,11.57
2022-11-16T20:38:39.187Z,14.65
2022-11-16T20:41:09.691Z,12.73
2022-11-16T20:43:36.889Z,12.25
2022-11-16T20:46:03.682Z,17.35
2022-11-16T20:48:30.268Z,23.17
2022-11-16T20:50:56.917Z,17.60
2022-11-16T20:53:23.587Z,10.82
2022-11-16T20:55:50.150Z,14.98
2022-11-16T20:58:22.425Z,8.52
2022-11-16T21:00:50.235Z,8.82
2022-11-16T21:03:17.267Z,10.35
2022-11-16T21:05:45.403Z,10.30
2022-11-16T21:08:12.818Z,7.05
2022-11-16T21:10:40.064Z,13.38
2022-11-16T21:13:30.539Z,8.00
2022-11-16T21:16:17.491Z,14.75
2022-11-16T21:18:44.088Z,4.60
2022-11-16T21:21:13.351Z,5.93
2022-11-16T21:23:51.399Z,3.17
2022-11-16T21:26:26.372Z,6.40
2022-11-16T21:28:53.465Z,10.20
2022-11-16T21:31:25.405Z,6.82
2022-11-16T21:33:52.574Z,8.20
2022-11-16T21:36:20.864Z,4.72
2022-11-16T21:38:48.738Z,8.73
2022-11-16T21:41:17.114Z,5.68
2022-11-16T21:43:44.351Z,7.90
2022-11-16T21:46:22.746Z,9.82
2022-11-16T21:48:51.227Z,24.73
2022-11-16T21:51:19.273Z,20.13
2022-11-16T21:53:46.177Z,12.50
2022-11-16T21:56:18.563Z,10.73
2022-11-16T21:58:45.550Z,15.98
2022-11-16T22:01:13.480Z,8.00
2022-11-16T22:03:40.221Z,4.68
2022-11-16T22:06:29.838Z,6.90
2022-11-16T22:08:56.535Z,7.22
2022-11-16T22:11:23.151Z,6.68
2022-11-16T22:13:50.356Z,5.65
2022-11-16T22:16:21.313Z,6.10
2022-11-16T22:18:47.872Z,7.07
2022-11-16T22:21:14.503Z,14.00
2022-11-16T22:23:41.650Z,6.07
2022-11-16T22:26:10.878Z,6.82
2022-11-16T22:28:37.768Z,8.38
2022-11-16T22:31:13.019Z,5.43
2022-11-16T22:33:40.427Z,3.28
2022-11-16T22:36:10.771Z,5.35
2022-11-16T22:38:37.895Z,9.98
2022-11-16T22:41:04.589Z,4.82
2022-11-16T22:43:32.596Z,6.68
2022-11-16T22:46:04.733Z,4.32
2022-11-16T22:48:32.651Z,5.15
2022-11-16T22:51:07.905Z,3.38
2022-11-16T22:53:35.229Z,7.28
2022-11-16T22:56:09.677Z,5.63
2022-11-16T22:58:37.518Z,8.02
2022-11-16T23:01:05.868Z,6.05
2022-11-16T23:03:32.654Z,9.85
2022-11-16T23:05:59.813Z,10.82
2022-11-16T23:08:27.276Z,6.90
2022-11-16T23:11:22.758Z,7.90
2022-11-16T23:14:08.432Z,11.57
2022-11-16T23:16:35.718Z,5.70
2022-11-16T23:19:02.602Z,5.10
2022-11-16T23:21:47.889Z,3.92
2022-11-16T23:24:34.074Z,2.72
2022-11-16T23:27:22.866Z,3.72
2022-11-16T23:29:49.621Z,3.22
